sensor_id;sensor_type;location;lat;lon;timestamp;pressure;altitude;pressure_sealevel;temperature;humidity
61384;BME280;63511;49.346;8.798;2023-04-08T00:02:24;100547.19;;;10.34;76.73
61384;BME280;63511;49.346;8.798;2023-04-08T00:04:50;100547.16;;;10.57;76.12
61384;BME280;63511;49.346;8.798;2023-04-08T00:07:16;100545.31;;;10.43;75.99
61384;BME280;63511;49.346;8.798;2023-04-08T00:09:43;100544.22;;;10.28;77.53
61384;BME280;63511;49.346;8.798;2023-04-08T00:12:09;100545.06;;;10.63;76.23
61384;BME280;63511;49.346;8.798;2023-04-08T00:14:36;100550.66;;;10.59;76.71
61384;BME280;63511;49.346;8.798;2023-04-08T00:17:02;100552.25;;;10.34;77.76
61384;BME280;63511;49.346;8.798;2023-04-08T00:19:30;100551.91;;;10.30;77.95
61384;BME280;63511;49.346;8.798;2023-04-08T00:21:57;100557.16;;;10.21;77.28
61384;BME280;63511;49.346;8.798;2023-04-08T00:24:24;100556.28;;;10.32;78.31
61384;BME280;63511;49.346;8.798;2023-04-08T00:26:50;100553.94;;;10.70;76.35
61384;BME280;63511;49.346;8.798;2023-04-08T00:29:17;100547.44;;;10.85;74.86
61384;BME280;63511;49.346;8.798;2023-04-08T00:31:43;100549.50;;;10.91;74.07
61384;BME280;63511;49.346;8.798;2023-04-08T00:34:09;100545.91;;;10.87;74.78
61384;BME280;63511;49.346;8.798;2023-04-08T00:36:37;100550.22;;;10.65;75.94
61384;BME280;63511;49.346;8.798;2023-04-08T00:39:04;100552.88;;;10.32;77.35
61384;BME280;63511;49.346;8.798;2023-04-08T00:41:31;100542.84;;;10.68;75.29
61384;BME280;63511;49.346;8.798;2023-04-08T00:43:57;100551.44;;;10.70;74.73
61384;BME280;63511;49.346;8.798;2023-04-08T00:46:23;100548.47;;;10.64;75.30
61384;BME280;63511;49.346;8.798;2023-04-08T00:48:50;100553.84;;;10.69;74.65
61384;BME280;63511;49.346;8.798;2023-04-08T00:51:17;100552.63;;;10.63;75.78
61384;BME280;63511;49.346;8.798;2023-04-08T00:53:45;100554.72;;;10.11;78.12
61384;BME280;63511;49.346;8.798;2023-04-08T00:56:11;100552.06;;;10.68;75.73
61384;BME280;63511;49.346;8.798;2023-04-08T00:58:37;100564.69;;;10.79;74.98
61384;BME280;63511;49.346;8.798;2023-04-08T01:01:06;100558.16;;;10.94;74.52
61384;BME280;63511;49.346;8.798;2023-04-08T01:03:37;100562.03;;;10.89;73.98
61384;BME280;63511;49.346;8.798;2023-04-08T01:06:09;100565.09;;;10.97;74.07
61384;BME280;63511;49.346;8.798;2023-04-08T01:08:38;100558.09;;;10.93;73.84
61384;BME280;63511;49.346;8.798;2023-04-08T01:11:09;100554.25;;;10.86;73.66
61384;BME280;63511;49.346;8.798;2023-04-08T01:13:36;100556.59;;;11.08;73.99
61384;BME280;63511;49.346;8.798;2023-04-08T01:16:04;100554.50;;;10.66;75.51
61384;BME280;63511;49.346;8.798;2023-04-08T01:18:32;100542.66;;;10.42;77.04
61384;BME280;63511;49.346;8.798;2023-04-08T01:21:00;100553.25;;;10.84;75.74
61384;BME280;63511;49.346;8.798;2023-04-08T01:23:30;100553.16;;;10.83;74.85
61384;BME280;63511;49.346;8.798;2023-04-08T01:25:59;100552.34;;;10.95;73.75
61384;BME280;63511;49.346;8.798;2023-04-08T01:28:27;100556.75;;;10.98;73.75
61384;BME280;63511;49.346;8.798;2023-04-08T01:30:55;100551.50;;;10.83;75.32
61384;BME280;63511;49.346;8.798;2023-04-08T01:33:22;100552.03;;;10.91;74.29
61384;BME280;63511;49.346;8.798;2023-04-08T01:35:49;100552.66;;;11.00;73.80
61384;BME280;63511;49.346;8.798;2023-04-08T01:38:16;100550.28;;;10.90;74.38
61384;BME280;63511;49.346;8.798;2023-04-08T01:40:43;100547.63;;;10.40;75.76
61384;BME280;63511;49.346;8.798;2023-04-08T01:43:13;100547.31;;;10.24;76.67
61384;BME280;63511;49.346;8.798;2023-04-08T01:45:41;100544.75;;;10.59;75.66
61384;BME280;63511;49.346;8.798;2023-04-08T01:48:08;100542.41;;;10.74;74.45
61384;BME280;63511;49.346;8.798;2023-04-08T01:50:35;100551.59;;;10.85;74.15
61384;BME280;63511;49.346;8.798;2023-04-08T01:53:02;100545.34;;;10.80;74.07
61384;BME280;63511;49.346;8.798;2023-04-08T01:55:29;100547.38;;;10.72;74.71
61384;BME280;63511;49.346;8.798;2023-04-08T01:57:58;100547.13;;;10.81;74.22
61384;BME280;63511;49.346;8.798;2023-04-08T02:00:27;100548.50;;;10.89;73.82
61384;BME280;63511;49.346;8.798;2023-04-08T02:02:54;100544.56;;;10.92;73.90
61384;BME280;63511;49.346;8.798;2023-04-08T02:05:22;100543.59;;;10.79;74.60
61384;BME280;63511;49.346;8.798;2023-04-08T02:07:48;100546.16;;;10.67;74.62
61384;BME280;63511;49.346;8.798;2023-04-08T02:10:16;100547.06;;;10.56;75.41
61384;BME280;63511;49.346;8.798;2023-04-08T02:12:42;100543.75;;;10.57;74.90
61384;BME280;63511;49.346;8.798;2023-04-08T02:15:09;100550.09;;;10.75;74.83
61384;BME280;63511;49.346;8.798;2023-04-08T02:17:40;100551.84;;;10.76;73.90
61384;BME280;63511;49.346;8.798;2023-04-08T02:20:09;100552.56;;;10.39;76.24
61384;BME280;63511;49.346;8.798;2023-04-08T02:22:37;100553.44;;;10.51;75.99
61384;BME280;63511;49.346;8.798;2023-04-08T02:25:04;100552.25;;;10.46;76.32
61384;BME280;63511;49.346;8.798;2023-04-08T02:27:33;100555.28;;;10.65;75.28
61384;BME280;63511;49.346;8.798;2023-04-08T02:30:01;100553.06;;;10.70;74.54
61384;BME280;63511;49.346;8.798;2023-04-08T02:32:28;100553.19;;;10.59;74.90
61384;BME280;63511;49.346;8.798;2023-04-08T02:34:57;100556.63;;;10.25;75.85
61384;BME280;63511;49.346;8.798;2023-04-08T02:37:24;100557.59;;;10.15;75.73
61384;BME280;63511;49.346;8.798;2023-04-08T02:39:51;100561.53;;;10.12;75.84
61384;BME280;63511;49.346;8.798;2023-04-08T02:42:17;100556.69;;;10.03;75.79
61384;BME280;63511;49.346;8.798;2023-04-08T02:44:44;100559.97;;;9.79;76.85
61384;BME280;63511;49.346;8.798;2023-04-08T02:47:10;100562.56;;;9.80;76.50
61384;BME280;63511;49.346;8.798;2023-04-08T02:49:36;100566.50;;;9.65;76.80
61384;BME280;63511;49.346;8.798;2023-04-08T02:52:04;100561.44;;;9.65;76.21
61384;BME280;63511;49.346;8.798;2023-04-08T02:54:30;100558.78;;;9.52;76.23
61384;BME280;63511;49.346;8.798;2023-04-08T02:56:57;100555.44;;;9.63;75.99
61384;BME280;63511;49.346;8.798;2023-04-08T02:59:23;100550.09;;;9.37;75.61
61384;BME280;63511;49.346;8.798;2023-04-08T03:01:50;100565.50;;;9.30;76.65
61384;BME280;63511;49.346;8.798;2023-04-08T03:04:16;100565.72;;;9.33;75.72
61384;BME280;63511;49.346;8.798;2023-04-08T03:06:42;100563.81;;;8.97;77.21
61384;BME280;63511;49.346;8.798;2023-04-08T03:09:10;100558.81;;;8.65;78.69
61384;BME280;63511;49.346;8.798;2023-04-08T03:11:36;100562.63;;;8.82;77.55
61384;BME280;63511;49.346;8.798;2023-04-08T03:14:03;100567.09;;;8.74;77.15
61384;BME280;63511;49.346;8.798;2023-04-08T03:16:29;100566.16;;;8.52;77.72
61384;BME280;63511;49.346;8.798;2023-04-08T03:18:56;100572.00;;;8.73;77.03
61384;BME280;63511;49.346;8.798;2023-04-08T03:21:22;100573.84;;;8.53;77.76
61384;BME280;63511;49.346;8.798;2023-04-08T03:23:48;100570.44;;;8.53;77.16
61384;BME280;63511;49.346;8.798;2023-04-08T03:26:16;100571.94;;;8.51;76.47
61384;BME280;63511;49.346;8.798;2023-04-08T03:28:43;100571.56;;;8.57;76.57
61384;BME280;63511;49.346;8.798;2023-04-08T03:31:09;100569.72;;;8.44;76.67
61384;BME280;63511;49.346;8.798;2023-04-08T03:33:35;100578.63;;;8.50;76.40
61384;BME280;63511;49.346;8.798;2023-04-08T03:36:02;100572.63;;;8.28;77.25
61384;BME280;63511;49.346;8.798;2023-04-08T03:38:28;100572.16;;;8.32;76.56
61384;BME280;63511;49.346;8.798;2023-04-08T03:40:55;100582.19;;;8.22;76.70
61384;BME280;63511;49.346;8.798;2023-04-08T03:43:22;100572.66;;;8.18;76.78
61384;BME280;63511;49.346;8.798;2023-04-08T03:45:49;100575.31;;;7.99;77.43
61384;BME280;63511;49.346;8.798;2023-04-08T03:48:16;100574.28;;;8.18;76.47
61384;BME280;63511;49.346;8.798;2023-04-08T03:50:42;100577.78;;;8.20;75.65
61384;BME280;63511;49.346;8.798;2023-04-08T03:53:08;100566.97;;;8.21;75.35
61384;BME280;63511;49.346;8.798;2023-04-08T03:55:36;100575.94;;;8.17;75.37
61384;BME280;63511;49.346;8.798;2023-04-08T03:58:03;100581.59;;;8.04;75.80
61384;BME280;63511;49.346;8.798;2023-04-08T04:00:31;100578.31;;;8.16;75.79
61384;BME280;63511;49.346;8.798;2023-04-08T04:02:57;100579.59;;;8.00;75.94
61384;BME280;63511;49.346;8.798;2023-04-08T04:05:23;100584.00;;;7.52;77.50
61384;BME280;63511;49.346;8.798;2023-04-08T04:07:50;100587.13;;;7.19;78.74
61384;BME280;63511;49.346;8.798;2023-04-08T04:10:16;100580.50;;;7.40;79.21
61384;BME280;63511;49.346;8.798;2023-04-08T04:12:43;100589.75;;;7.41;77.99
61384;BME280;63511;49.346;8.798;2023-04-08T04:15:10;100596.69;;;7.54;77.80
61384;BME280;63511;49.346;8.798;2023-04-08T04:17:38;100597.22;;;7.60;76.63
61384;BME280;63511;49.346;8.798;2023-04-08T04:20:05;100602.22;;;7.60;76.81
61384;BME280;63511;49.346;8.798;2023-04-08T04:22:31;100593.81;;;7.69;77.25
61384;BME280;63511;49.346;8.798;2023-04-08T04:24:58;100602.75;;;7.86;76.86
61384;BME280;63511;49.346;8.798;2023-04-08T04:27:24;100598.84;;;7.80;77.51
61384;BME280;63511;49.346;8.798;2023-04-08T04:29:50;100597.59;;;7.75;78.78
61384;BME280;63511;49.346;8.798;2023-04-08T04:32:17;100592.94;;;7.79;78.37
61384;BME280;63511;49.346;8.798;2023-04-08T04:34:44;100599.09;;;8.03;77.51
61384;BME280;63511;49.346;8.798;2023-04-08T04:37:11;100606.13;;;7.87;77.49
61384;BME280;63511;49.346;8.798;2023-04-08T04:39:37;100602.22;;;7.60;79.43
61384;BME280;63511;49.346;8.798;2023-04-08T04:42:04;100604.50;;;8.07;78.28
61384;BME280;63511;49.346;8.798;2023-04-08T04:44:30;100602.19;;;8.21;76.80
61384;BME280;63511;49.346;8.798;2023-04-08T04:46:57;100606.72;;;8.15;77.15
61384;BME280;63511;49.346;8.798;2023-04-08T04:49:23;100598.66;;;8.19;76.70
61384;BME280;63511;49.346;8.798;2023-04-08T04:51:51;100603.44;;;8.36;76.60
61384;BME280;63511;49.346;8.798;2023-04-08T04:54:17;100605.59;;;8.21;76.60
61384;BME280;63511;49.346;8.798;2023-04-08T04:56:44;100602.19;;;8.21;77.58
61384;BME280;63511;49.346;8.798;2023-04-08T04:59:10;100608.09;;;8.41;76.87
61384;BME280;63511;49.346;8.798;2023-04-08T05:01:36;100610.63;;;8.21;78.20
61384;BME280;63511;49.346;8.798;2023-04-08T05:04:05;100604.47;;;8.18;79.15
61384;BME280;63511;49.346;8.798;2023-04-08T05:06:31;100613.78;;;8.29;78.51
61384;BME280;63511;49.346;8.798;2023-04-08T05:08:59;100616.88;;;8.46;77.77
61384;BME280;63511;49.346;8.798;2023-04-08T05:11:25;100622.44;;;8.42;78.25
61384;BME280;63511;49.346;8.798;2023-04-08T05:13:52;100610.19;;;8.57;77.53
61384;BME280;63511;49.346;8.798;2023-04-08T05:16:18;100610.81;;;8.65;77.45
61384;BME280;63511;49.346;8.798;2023-04-08T05:18:44;100614.84;;;8.63;77.60
61384;BME280;63511;49.346;8.798;2023-04-08T05:21:11;100617.84;;;8.69;77.23
61384;BME280;63511;49.346;8.798;2023-04-08T05:23:37;100619.38;;;8.88;77.22
61384;BME280;63511;49.346;8.798;2023-04-08T05:26:07;100620.84;;;9.07;75.94
61384;BME280;63511;49.346;8.798;2023-04-08T05:28:33;100628.94;;;8.92;76.47
61384;BME280;63511;49.346;8.798;2023-04-08T05:31:00;100634.22;;;8.95;76.73
61384;BME280;63511;49.346;8.798;2023-04-08T05:33:26;100624.22;;;9.07;76.52
61384;BME280;63511;49.346;8.798;2023-04-08T05:35:53;100626.41;;;9.24;76.00
61384;BME280;63511;49.346;8.798;2023-04-08T05:38:19;100632.78;;;9.31;76.00
61384;BME280;63511;49.346;8.798;2023-04-08T05:40:45;100628.03;;;9.46;75.67
61384;BME280;63511;49.346;8.798;2023-04-08T05:43:13;100633.81;;;9.45;74.90
61384;BME280;63511;49.346;8.798;2023-04-08T05:45:40;100624.81;;;9.15;78.00
61384;BME280;63511;49.346;8.798;2023-04-08T05:48:06;100629.38;;;9.09;78.53
61384;BME280;63511;49.346;8.798;2023-04-08T05:50:33;100637.16;;;9.33;77.70
61384;BME280;63511;49.346;8.798;2023-04-08T05:53:00;100640.69;;;9.57;76.86
61384;BME280;63511;49.346;8.798;2023-04-08T05:55:26;100641.72;;;9.71;76.50
61384;BME280;63511;49.346;8.798;2023-04-08T05:57:53;100645.94;;;9.82;76.06
61384;BME280;63511;49.346;8.798;2023-04-08T06:00:21;100652.88;;;9.63;77.54
61384;BME280;63511;49.346;8.798;2023-04-08T06:02:47;100648.00;;;9.76;76.90
61384;BME280;63511;49.346;8.798;2023-04-08T06:05:14;100647.09;;;9.75;77.26
61384;BME280;63511;49.346;8.798;2023-04-08T06:07:40;100652.88;;;9.96;76.11
61384;BME280;63511;49.346;8.798;2023-04-08T06:10:07;100649.88;;;9.90;76.08
61384;BME280;63511;49.346;8.798;2023-04-08T06:12:34;100653.03;;;9.76;75.95
61384;BME280;63511;49.346;8.798;2023-04-08T06:15:00;100662.63;;;9.92;76.96
61384;BME280;63511;49.346;8.798;2023-04-08T06:17:30;100665.06;;;10.02;75.22
61384;BME280;63511;49.346;8.798;2023-04-08T06:19:56;100666.91;;;9.93;76.54
61384;BME280;63511;49.346;8.798;2023-04-08T06:22:23;100667.72;;;10.03;75.51
61384;BME280;63511;49.346;8.798;2023-04-08T06:24:50;100668.03;;;9.74;77.13
61384;BME280;63511;49.346;8.798;2023-04-08T06:27:16;100665.66;;;9.11;78.62
61384;BME280;63511;49.346;8.798;2023-04-08T06:29:43;100666.13;;;8.85;80.82
61384;BME280;63511;49.346;8.798;2023-04-08T06:32:10;100667.81;;;9.06;80.46
61384;BME280;63511;49.346;8.798;2023-04-08T06:34:38;100664.47;;;9.17;80.58
61384;BME280;63511;49.346;8.798;2023-04-08T06:37:05;100662.38;;;9.12;80.31
61384;BME280;63511;49.346;8.798;2023-04-08T06:39:32;100666.28;;;9.08;80.89
61384;BME280;63511;49.346;8.798;2023-04-08T06:41:58;100660.44;;;9.19;81.13
61384;BME280;63511;49.346;8.798;2023-04-08T06:44:24;100666.66;;;9.34;80.42
61384;BME280;63511;49.346;8.798;2023-04-08T06:46:51;100670.41;;;10.16;77.56
61384;BME280;63511;49.346;8.798;2023-04-08T06:49:18;100674.19;;;10.11;78.41
61384;BME280;63511;49.346;8.798;2023-04-08T06:51:46;100675.25;;;10.37;77.00
61384;BME280;63511;49.346;8.798;2023-04-08T06:54:12;100677.91;;;10.38;76.20
61384;BME280;63511;49.346;8.798;2023-04-08T06:56:39;100681.63;;;10.32;76.76
61384;BME280;63511;49.346;8.798;2023-04-08T06:59:06;100676.16;;;10.37;76.45
61384;BME280;63511;49.346;8.798;2023-04-08T07:01:32;100678.47;;;10.12;76.84
61384;BME280;63511;49.346;8.798;2023-04-08T07:03:59;100676.72;;;10.00;77.22
61384;BME280;63511;49.346;8.798;2023-04-08T07:06:28;100678.72;;;10.15;77.26
61384;BME280;63511;49.346;8.798;2023-04-08T07:08:56;100689.94;;;10.19;77.21
61384;BME280;63511;49.346;8.798;2023-04-08T07:11:22;100690.09;;;10.44;75.31
61384;BME280;63511;49.346;8.798;2023-04-08T07:13:49;100693.75;;;10.82;75.11
61384;BME280;63511;49.346;8.798;2023-04-08T07:16:16;100698.25;;;10.98;74.43
61384;BME280;63511;49.346;8.798;2023-04-08T07:18:43;100696.78;;;11.25;74.34
61384;BME280;63511;49.346;8.798;2023-04-08T07:21:10;100691.59;;;11.35;73.98
61384;BME280;63511;49.346;8.798;2023-04-08T07:23:37;100699.97;;;11.22;73.90
61384;BME280;63511;49.346;8.798;2023-04-08T07:26:04;100700.63;;;11.31;73.65
61384;BME280;63511;49.346;8.798;2023-04-08T07:28:31;100702.97;;;11.05;75.38
61384;BME280;63511;49.346;8.798;2023-04-08T07:31:07;100715.03;;;11.21;75.64
61384;BME280;63511;49.346;8.798;2023-04-08T07:33:33;100713.72;;;11.14;76.73
61384;BME280;63511;49.346;8.798;2023-04-08T07:36:00;100712.81;;;11.25;75.93
61384;BME280;63511;49.346;8.798;2023-04-08T07:38:26;100711.03;;;11.36;76.11
61384;BME280;63511;49.346;8.798;2023-04-08T07:40:53;100706.72;;;11.58;74.67
61384;BME280;63511;49.346;8.798;2023-04-08T07:43:21;100717.66;;;11.82;74.33
61384;BME280;63511;49.346;8.798;2023-04-08T07:45:47;100714.63;;;11.99;73.87
61384;BME280;63511;49.346;8.798;2023-04-08T07:48:14;100716.31;;;11.87;74.12
61384;BME280;63511;49.346;8.798;2023-04-08T07:50:40;100717.25;;;11.76;73.54
61384;BME280;63511;49.346;8.798;2023-04-08T07:53:06;100716.00;;;12.32;72.38
61384;BME280;63511;49.346;8.798;2023-04-08T07:55:34;100714.69;;;12.25;70.60
61384;BME280;63511;49.346;8.798;2023-04-08T07:58:00;100715.66;;;12.52;69.72
61384;BME280;63511;49.346;8.798;2023-04-08T08:00:28;100712.13;;;12.50;70.43
61384;BME280;63511;49.346;8.798;2023-04-08T08:02:55;100718.94;;;12.64;68.45
61384;BME280;63511;49.346;8.798;2023-04-08T08:05:21;100712.41;;;12.55;67.74
61384;BME280;63511;49.346;8.798;2023-04-08T08:07:48;100713.34;;;12.17;70.87
61384;BME280;63511;49.346;8.798;2023-04-08T08:10:14;100715.16;;;12.07;71.54
61384;BME280;63511;49.346;8.798;2023-04-08T08:12:41;100717.75;;;12.08;72.84
61384;BME280;63511;49.346;8.798;2023-04-08T08:15:08;100714.00;;;12.15;71.15
61384;BME280;63511;49.346;8.798;2023-04-08T08:17:36;100710.38;;;12.75;70.44
61384;BME280;63511;49.346;8.798;2023-04-08T08:20:02;100706.69;;;13.23;69.63
61384;BME280;63511;49.346;8.798;2023-04-08T08:22:29;100705.38;;;13.43;68.31
61384;BME280;63511;49.346;8.798;2023-04-08T08:24:56;100713.22;;;13.06;68.27
61384;BME280;63511;49.346;8.798;2023-04-08T08:27:23;100715.69;;;13.05;67.61
61384;BME280;63511;49.346;8.798;2023-04-08T08:29:49;100725.06;;;13.19;68.13
61384;BME280;63511;49.346;8.798;2023-04-08T08:32:16;100722.50;;;12.93;66.99
61384;BME280;63511;49.346;8.798;2023-04-08T08:34:44;100727.44;;;13.44;66.09
61384;BME280;63511;49.346;8.798;2023-04-08T08:37:11;100728.38;;;13.18;65.37
61384;BME280;63511;49.346;8.798;2023-04-08T08:39:37;100719.50;;;13.25;66.54
61384;BME280;63511;49.346;8.798;2023-04-08T08:42:03;100731.44;;;13.01;66.21
61384;BME280;63511;49.346;8.798;2023-04-08T08:44:30;100723.00;;;13.13;65.82
61384;BME280;63511;49.346;8.798;2023-04-08T08:46:56;100726.47;;;14.25;64.53
61384;BME280;63511;49.346;8.798;2023-04-08T08:49:23;100725.53;;;13.95;62.83
61384;BME280;63511;49.346;8.798;2023-04-08T08:51:51;100720.72;;;14.00;61.67
61384;BME280;63511;49.346;8.798;2023-04-08T08:54:18;100717.72;;;13.78;63.10
61384;BME280;63511;49.346;8.798;2023-04-08T08:56:45;100725.13;;;13.75;62.83
61384;BME280;63511;49.346;8.798;2023-04-08T08:59:13;100718.41;;;14.18;60.22
61384;BME280;63511;49.346;8.798;2023-04-08T09:01:39;100718.53;;;14.34;60.95
61384;BME280;63511;49.346;8.798;2023-04-08T09:04:06;100721.72;;;14.59;58.25
61384;BME280;63511;49.346;8.798;2023-04-08T09:06:33;100726.25;;;14.79;55.31
61384;BME280;63511;49.346;8.798;2023-04-08T09:09:01;100721.00;;;15.22;55.72
61384;BME280;63511;49.346;8.798;2023-04-08T09:11:30;100726.44;;;15.13;54.37
61384;BME280;63511;49.346;8.798;2023-04-08T09:13:56;100723.91;;;15.13;55.34
61384;BME280;63511;49.346;8.798;2023-04-08T09:16:23;100723.88;;;15.75;53.09
61384;BME280;63511;49.346;8.798;2023-04-08T09:18:50;100725.31;;;15.39;53.33
61384;BME280;63511;49.346;8.798;2023-04-08T09:21:16;100721.59;;;14.87;53.83
61384;BME280;63511;49.346;8.798;2023-04-08T09:23:44;100721.59;;;14.87;52.81
61384;BME280;63511;49.346;8.798;2023-04-08T09:26:12;100712.84;;;15.27;49.36
61384;BME280;63511;49.346;8.798;2023-04-08T09:28:40;100716.03;;;15.40;49.91
61384;BME280;63511;49.346;8.798;2023-04-08T09:31:16;100715.72;;;15.50;44.76
61384;BME280;63511;49.346;8.798;2023-04-08T09:33:44;100714.84;;;15.33;43.81
61384;BME280;63511;49.346;8.798;2023-04-08T09:36:11;100715.09;;;15.38;46.23
61384;BME280;63511;49.346;8.798;2023-04-08T09:38:38;100724.63;;;15.72;47.75
61384;BME280;63511;49.346;8.798;2023-04-08T09:41:05;100719.31;;;15.84;47.47
61384;BME280;63511;49.346;8.798;2023-04-08T09:43:33;100716.97;;;15.72;45.64
61384;BME280;63511;49.346;8.798;2023-04-08T09:46:01;100717.50;;;15.20;49.16
61384;BME280;63511;49.346;8.798;2023-04-08T09:48:32;100714.06;;;15.50;45.91
61384;BME280;63511;49.346;8.798;2023-04-08T09:51:04;100716.75;;;15.06;48.99
61384;BME280;63511;49.346;8.798;2023-04-08T09:53:33;100717.72;;;14.94;48.61
61384;BME280;63511;49.346;8.798;2023-04-08T09:56:00;100720.56;;;15.45;44.30
61384;BME280;63511;49.346;8.798;2023-04-08T09:58:28;100711.63;;;15.21;44.69
61384;BME280;63511;49.346;8.798;2023-04-08T10:00:56;100722.78;;;15.70;44.63
61384;BME280;63511;49.346;8.798;2023-04-08T10:03:25;100715.88;;;15.06;49.85
61384;BME280;63511;49.346;8.798;2023-04-08T10:05:52;100718.50;;;15.07;45.95
61384;BME280;63511;49.346;8.798;2023-04-08T10:08:20;100719.06;;;15.32;45.66
61384;BME280;63511;49.346;8.798;2023-04-08T10:10:47;100718.78;;;14.97;43.71
61384;BME280;63511;49.346;8.798;2023-04-08T10:13:14;100725.09;;;14.89;44.15
61384;BME280;63511;49.346;8.798;2023-04-08T10:15:41;100722.50;;;15.18;46.87
61384;BME280;63511;49.346;8.798;2023-04-08T10:18:31;100720.63;;;15.30;42.54
61384;BME280;63511;49.346;8.798;2023-04-08T10:20:58;100713.09;;;14.86;42.51
61384;BME280;63511;49.346;8.798;2023-04-08T10:26:06;100712.94;;;15.14;42.53
61384;BME280;63511;49.346;8.798;2023-04-08T10:28:53;100717.38;;;15.02;43.01
61384;BME280;63511;49.346;8.798;2023-04-08T10:31:20;100714.69;;;15.15;42.20
61384;BME280;63511;49.346;8.798;2023-04-08T10:33:48;100711.81;;;15.40;43.23
61384;BME280;63511;49.346;8.798;2023-04-08T10:36:15;100725.38;;;15.24;43.08
61384;BME280;63511;49.346;8.798;2023-04-08T10:38:41;100724.50;;;14.78;42.83
61384;BME280;63511;49.346;8.798;2023-04-08T10:41:08;100733.19;;;14.53;42.30
61384;BME280;63511;49.346;8.798;2023-04-08T10:43:35;100726.09;;;14.76;43.13
61384;BME280;63511;49.346;8.798;2023-04-08T10:46:02;100721.53;;;14.85;43.51
61384;BME280;63511;49.346;8.798;2023-04-08T10:48:29;100721.97;;;14.78;42.13
61384;BME280;63511;49.346;8.798;2023-04-08T10:50:57;100726.16;;;14.78;42.35
61384;BME280;63511;49.346;8.798;2023-04-08T10:53:26;100720.81;;;14.73;41.64
61384;BME280;63511;49.346;8.798;2023-04-08T10:55:53;100734.06;;;14.68;41.48
61384;BME280;63511;49.346;8.798;2023-04-08T10:58:20;100736.19;;;14.75;42.58
61384;BME280;63511;49.346;8.798;2023-04-08T11:00:46;100736.72;;;14.55;41.88
61384;BME280;63511;49.346;8.798;2023-04-08T11:03:12;100733.28;;;14.69;42.48
61384;BME280;63511;49.346;8.798;2023-04-08T11:05:39;100738.38;;;14.39;41.62
61384;BME280;63511;49.346;8.798;2023-04-08T11:08:07;100736.34;;;14.63;41.22
61384;BME280;63511;49.346;8.798;2023-04-08T11:10:35;100739.25;;;14.69;41.08
61384;BME280;63511;49.346;8.798;2023-04-08T11:13:02;100728.59;;;15.06;42.55
61384;BME280;63511;49.346;8.798;2023-04-08T11:15:31;100714.41;;;14.95;41.84
61384;BME280;63511;49.346;8.798;2023-04-08T11:18:00;100722.28;;;14.99;41.89
61384;BME280;63511;49.346;8.798;2023-04-08T11:20:27;100715.44;;;15.13;42.62
61384;BME280;63511;49.346;8.798;2023-04-08T11:22:53;100712.84;;;14.67;40.84
61384;BME280;63511;49.346;8.798;2023-04-08T11:25:21;100716.66;;;15.05;40.51
61384;BME280;63511;49.346;8.798;2023-04-08T11:27:48;100715.00;;;15.05;41.86
61384;BME280;63511;49.346;8.798;2023-04-08T11:30:14;100721.59;;;15.02;41.78
61384;BME280;63511;49.346;8.798;2023-04-08T11:32:41;100728.28;;;14.85;41.38
61384;BME280;63511;49.346;8.798;2023-04-08T11:35:07;100728.06;;;14.82;42.21
61384;BME280;63511;49.346;8.798;2023-04-08T11:37:37;100726.16;;;14.78;42.92
61384;BME280;63511;49.346;8.798;2023-04-08T11:40:07;100727.22;;;14.81;41.92
61384;BME280;63511;49.346;8.798;2023-04-08T11:42:36;100712.78;;;15.11;41.00
61384;BME280;63511;49.346;8.798;2023-04-08T11:45:08;100723.66;;;15.09;39.64
61384;BME280;63511;49.346;8.798;2023-04-08T11:47:35;100717.47;;;14.89;40.44
61384;BME280;63511;49.346;8.798;2023-04-08T11:50:01;100725.03;;;14.73;40.56
61384;BME280;63511;49.346;8.798;2023-04-08T11:52:43;100719.28;;;15.37;42.32
61384;BME280;63511;49.346;8.798;2023-04-08T11:55:11;100728.09;;;14.67;41.22
61384;BME280;63511;49.346;8.798;2023-04-08T11:57:39;100727.56;;;15.49;40.24
61384;BME280;63511;49.346;8.798;2023-04-08T12:00:06;100734.25;;;15.62;41.61
61384;BME280;63511;49.346;8.798;2023-04-08T12:02:33;100721.00;;;14.76;40.80
61384;BME280;63511;49.346;8.798;2023-04-08T12:05:00;100730.84;;;15.16;40.96
61384;BME280;63511;49.346;8.798;2023-04-08T12:07:26;100723.41;;;15.35;39.85
61384;BME280;63511;49.346;8.798;2023-04-08T12:09:53;100732.44;;;15.59;40.81
61384;BME280;63511;49.346;8.798;2023-04-08T12:12:19;100726.88;;;14.75;40.73
61384;BME280;63511;49.346;8.798;2023-04-08T12:14:47;100728.59;;;15.37;39.53
61384;BME280;63511;49.346;8.798;2023-04-08T12:17:13;100723.72;;;15.56;39.33
61384;BME280;63511;49.346;8.798;2023-04-08T12:19:40;100727.13;;;15.25;39.71
61384;BME280;63511;49.346;8.798;2023-04-08T12:22:06;100727.09;;;15.40;39.84
61384;BME280;63511;49.346;8.798;2023-04-08T12:24:33;100732.88;;;15.52;39.11
61384;BME280;63511;49.346;8.798;2023-04-08T12:26:59;100730.50;;;15.71;39.71
61384;BME280;63511;49.346;8.798;2023-04-08T12:29:26;100730.22;;;15.51;40.37
61384;BME280;63511;49.346;8.798;2023-04-08T12:31:54;100725.88;;;15.81;39.95
61384;BME280;63511;49.346;8.798;2023-04-08T12:34:21;100740.00;;;14.98;40.47
61384;BME280;63511;49.346;8.798;2023-04-08T12:36:47;100734.47;;;15.66;39.65
61384;BME280;63511;49.346;8.798;2023-04-08T12:39:14;100730.41;;;15.70;40.79
61384;BME280;63511;49.346;8.798;2023-04-08T12:41:40;100726.84;;;16.15;40.09
61384;BME280;63511;49.346;8.798;2023-04-08T12:44:07;100729.72;;;15.89;42.44
61384;BME280;63511;49.346;8.798;2023-04-08T12:46:33;100720.25;;;16.86;40.98
61384;BME280;63511;49.346;8.798;2023-04-08T12:49:01;100720.50;;;16.41;39.28
61384;BME280;63511;49.346;8.798;2023-04-08T12:51:28;100726.44;;;15.75;40.44
61384;BME280;63511;49.346;8.798;2023-04-08T12:53:55;100728.44;;;15.97;40.33
61384;BME280;63511;49.346;8.798;2023-04-08T12:56:21;100724.22;;;15.65;41.14